x

8454049 - Quonset Point, Ri (qptr1) Weather Station

3:18 - Sun 24th Jul 2016 All times are EDT. -4 hours from GMT.

  • Wind
    18mph, 21mph gusts
  • Sea Temp 75°f
  • Air Temp 76°f
  • Sea Pressure 1014mb
  • 8454049 - Quonset Point, Ri
  • 8454049 - Quonset Point, Ri

More Historic Weather Station data

Upgrade to MSW Pro to gain access to the past 30 days of data for over 8000 Wavebouys and Weather Stations around the globe.

Join Pro

Comparision Forecast

View Surf forecast
   
dim. 07/24 3:18 18 21 mph 1014mb 75f 76f
3:12 17 20 mph 1013.9mb 75f 76f
3:06 15 16 mph 1014mb 75f 76f
3:00 15 17 mph 1014mb 75f 76f
2:54 14 16 mph 1014.1mb 75f 76f
2:48 14 17 mph 1014.1mb 75f 76f
2:42 15 17 mph 1014mb 75f 76f
2:36 15 17 mph 1014mb 75f 76f
2:30 16 17 mph 1014mb 75f 76f
2:24 14 16 mph 1014.1mb 74f 76f
2:18 14 16 mph 1014.1mb 74f 76f
2:12 15 18 mph 1014.2mb 74f 76f
2:06 16 18 mph 1014.3mb 74f 75f
2:00 17 20 mph 1014.4mb 74f 75f
1:54 17 20 mph 1014.5mb 73f 75f
1:48 16 21 mph 1014.4mb 73f 75f
1:42 17 20 mph 1014.4mb 72f 75f
1:36 16 18 mph 1014.4mb 72f 75f
1:30 16 17 mph 1014.4mb 72f 76f
1:24 14 16 mph 1014.4mb 72f 76f
1:18 14 17 mph 1014.5mb 73f 76f
1:12 15 16 mph 1014.5mb 73f 76f
1:06 15 17 mph 1014.5mb 73f 75f
1:00 14 16 mph 1014.5mb 73f 75f
12:54 15 16 mph 1014.5mb 74f 75f
12:48 15 16 mph 1014.5mb 74f 75f
12:42 11 14 mph 1014.4mb 74f 76f
12:36 13 14 mph 1014.3mb 74f 75f
12:30 10 11 mph 1014.4mb 74f 76f
12:24 9 10 mph 1014.4mb 74f 77f
12:18 5 6 mph 1014.4mb 74f 78f
12:12 6 7 mph 1014.4mb 74f 77f
12:06 5 6 mph 1014.5mb 74f 77f
12:00 6 7 mph 1014.5mb 74f 77f
11:54 7
mph
1014.4mb 74f 77f
11:48 7 8 mph 1014.3mb 74f 77f
11:42 8 9 mph 1014.3mb 74f 76f
11:36 8
mph
1014.3mb 74f 76f
11:30 8
mph
1014.3mb 74f 76f
11:24 7
mph
1014.4mb 74f 76f
11:18 7 8 mph 1014.3mb 74f 76f
11:12 8 9 mph 1014.3mb 74f 76f
11:06 8 9 mph 1014.3mb 74f 76f
11:00 8 9 mph 1014.3mb 74f 76f
10:54 7 8 mph 1014.3mb 74f 76f
10:48 8
mph
1014.3mb 74f 76f
10:42 6 7 mph 1014.4mb 74f 76f
10:36 6 7 mph 1014.4mb 74f 76f
10:30 6
mph
1014.4mb 74f 76f
10:24 6 7 mph 1014.3mb 74f 76f
10:18 6 8 mph 1014.3mb 74f 76f
10:12 6 9 mph 1014.3mb 74f 76f
10:06 9 10 mph 1014.3mb 74f 76f
10:00 7 11 mph 1014.4mb 74f 77f
9:54 6 9 mph 1014.4mb 74f 78f
9:48 6 11 mph 1014.4mb 74f 78f
9:42 7 10 mph 1014.3mb 74f 77f
9:36 5 9 mph 1014.2mb 74f 78f
9:30 8 10 mph 1014.2mb 74f 77f
9:24 6 11 mph 1014.2mb 74f 77f
9:18 6 10 mph 1014.2mb 74f 77f
9:12 5 10 mph 1014.2mb 74f 77f
9:06 5 9 mph 1014.3mb 74f 76f
9:00 5 9 mph 1014.3mb 74f 76f
8:54 6 8 mph 1014.3mb 74f 76f
8:48 6 9 mph 1014.2mb 74f 75f
8:42 6 9 mph 1014.1mb 74f 76f
8:36 3 7 mph 1014.1mb 74f 76f
8:30 3 9 mph 1014.1mb 74f 75f
8:24 5 11 mph 1014.2mb 74f 75f
8:18 5 10 mph 1014.2mb 74f 74f
8:12 8 11 mph 1014.2mb 74f 74f
8:06 7 10 mph 1014.2mb 74f 74f
8:00 6 10 mph 1014.2mb 74f 74f
7:54 6 8 mph 1014.1mb 74f 74f
7:48 6 10 mph 1014.1mb 74f 74f
7:42 7 9 mph 1014mb 74f 73f
7:36 6 9 mph 1014.1mb 74f 73f
7:30 5 7 mph 1014.1mb 74f 73f
7:24 3 7 mph 1014mb 74f 73f
7:18 5 7 mph 1014mb 74f 73f
7:12 3 6 mph 1014.1mb 74f 73f
7:06  -  2 mph 1014mb 74f 74f
7:00 2 7 mph 1014mb 74f 73f
6:54 3 5 mph 1013.9mb 74f 73f
6:48 2 3 mph 1013.8mb 73f 73f
6:42  -  3 mph 1013.7mb 73f 73f
6:36 1 3 mph 1013.7mb 73f 73f
6:30 2 3 mph 1013.7mb 73f 72f
6:24 2 3 mph 1013.6mb 73f 72f
6:18  -  3 mph 1013.6mb 73f 73f
6:12 2 3 mph 1013.6mb 73f 71f
6:06 3 5 mph 1013.5mb 73f 71f
6:00 3 5 mph 1013.4mb 73f 70f
5:54 3 5 mph 1013.3mb 73f 70f
5:48 2 5 mph 1013.3mb 73f 71f
5:42 3
mph
1013.2mb 73f 71f
5:36 2 5 mph 1013.2mb 73f 71f
5:30 3 6 mph 1013.1mb 73f 70f
5:24 3 5 mph 1013.1mb 73f 70f
5:18 2 6 mph 1013mb 73f 70f
5:12 5 6 mph 1013mb 73f 70f
5:06 2 6 mph 1012.9mb 73f 70f
5:00 5 6 mph 1012.8mb 73f 70f
4:54 2 7 mph 1012.7mb 73f 70f
4:48 3 6 mph 1012.7mb 73f 70f
4:42 3 7 mph 1012.7mb 73f 71f
4:36 2 6 mph 1012.7mb 73f 71f
4:30 2 7 mph 1012.6mb 73f 71f
4:24 5 8 mph 1012.7mb 73f 71f
4:18 5 7 mph 1012.5mb 73f 71f
4:12 3 5 mph 1012.5mb 73f 71f
4:06 2 6 mph 1012.5mb 73f 71f
4:00 3 6 mph 1012.5mb 73f 71f
3:54 3 7 mph 1012.5mb 73f 71f
3:48 5 8 mph 1012.7mb 73f 71f
3:42 3 6 mph 1012.7mb 73f 71f
3:36 5 6 mph 1012.7mb 73f 71f
3:30 3 5 mph 1012.6mb 73f 71f
3:24 2 6 mph 1012.7mb 73f 71f
3:18 2 5 mph 1012.8mb 73f 72f
3:12 2 6 mph 1012.8mb 73f 72f
3:06 2 6 mph 1012.8mb 73f 72f
3:00 2 8 mph 1012.7mb 73f 72f
2:54 3 7 mph 1012.7mb 73f 72f
2:48 3 9 mph 1012.8mb 73f 72f
2:42 5 8 mph 1012.7mb 73f 72f
2:36 3 7 mph 1012.6mb 73f 73f
2:30 3 7 mph 1012.7mb 73f 73f
2:24 5 8 mph 1012.7mb 73f 73f
2:18 5 7 mph 1012.8mb 73f 73f
2:12 5 8 mph 1012.8mb 73f 74f
2:06 5 8 mph 1012.7mb 73f 74f
2:00 6 8 mph 1012.6mb 74f 74f
1:54 3 7 mph 1012.4mb 74f 74f
1:48 5 6 mph 1012.4mb 74f 74f
1:42 3 6 mph 1012.3mb 74f 74f
1:36 2 7 mph 1012.3mb 74f 74f
1:30 3 7 mph 1012.3mb 74f 74f
1:24 5 7 mph 1012.3mb 74f 74f
1:18 3 6 mph 1012.1mb 74f 75f
1:12 5 7 mph 1012.1mb 74f 75f
1:06 5 7 mph 1012mb 74f 75f
1:00 5 9 mph 1011.9mb 74f 75f
12:54 5 7 mph 1011.9mb 74f 76f
12:48 5 7 mph 1011.9mb 74f 76f
12:42 5 7 mph 1011.9mb 74f 76f
12:36 5 7 mph 1012mb 74f 76f
12:30 6 8 mph 1012mb 74f 76f
12:24 5 8 mph 1012mb 74f 76f
12:18 5 9 mph 1012mb 74f 76f
12:12 5 7 mph 1011.8mb 74f 76f
12:06 3 6 mph 1011.9mb 74f 76f
12:00 3 6 mph 1011.7mb 74f 76f
sam. 07/23 11:54 3 6 mph 1011.6mb 74f 76f
11:48 3 5 mph 1011.6mb 74f 76f
11:42 2 6 mph 1011.5mb 74f 76f
11:36 3 6 mph 1011.6mb 74f 76f
11:30 3 6 mph 1011.7mb 74f 76f
11:24 5 8 mph 1011.5mb 74f 76f
11:18 6 7 mph - 74f 76f
11:12 6 8 mph - 74f 76f
11:06 7 9 mph - 74f 77f
11:00  -  mph - 74f 77f
10:54  -  mph - 74f 77f
10:48 10 14 mph 1011.3mb - -
10:42 11 13 mph 1011.2mb - -
10:36 13 16 mph 1011.1mb - -
10:30 13 16 mph 1011.1mb - -
10:24 13 15 mph 1011mb - -
10:18  -  mph 1010.9mb 74f 77f
10:12  -  mph 1011mb 74f 78f
10:06  -  mph 1010.9mb 74f 77f
10:00  -  mph - 74f 78f
9:54  -  mph - 74f 79f
9:48  -  mph - 74f -
9:42  -  mph - 74f -
9:36  -  mph - 74f -
9:30 10 13 mph - - -
9:24 11 14 mph - - -
9:18 10 16 mph - 74f -
9:12 13 17 mph - 74f -
9:06 14 18 mph - 74f -
9:00  -  mph - 74f 80f
8:54  -  mph - 74f 79f
8:48 16 23 mph 1009.4mb - -
8:42 5 7 mph 1009.1mb - -
8:36 5 8 mph 1008.9mb - -
8:30 6 22 mph - - -
8:24 22 26 mph - - -
8:18 13 30 mph 1009.1mb 74f -
8:12 7 10 mph 1008.8mb 74f -
8:06 6 9 mph 1008.5mb 74f -
8:00  -  mph - 74f -
7:54  -  mph - 74f -
7:48 6 9 mph - - -
7:42 7 10 mph - - -
7:36 7 11 mph - - -
7:30 6 14 mph - - -
7:24 7 13 mph - - -
7:18 6 9 mph 1007.7mb 74f 86f
7:12 5 6 mph 1007.7mb 74f 87f
7:06 5 9 mph 1007.7mb 74f 87f
7:00  -  mph - 74f 89f
6:54  -  mph - 74f 89f
6:48  -  mph - 74f 90f
6:42  -  mph - 74f 90f
6:36  -  mph - 74f 90f
6:30 9 15 mph - - -
6:24 10 16 mph - - -
6:18  -  mph - 74f -
6:12  -  mph - 74f -
6:06  -  mph - 74f -
6:00  -  mph - 74f -
5:54  -  mph - 74f -
5:48 9 18 mph 1007.3mb - 90f
5:42 9 14 mph 1007.2mb - 92f
5:36 10 15 mph 1007mb - 92f
5:30 10 17 mph 1007mb 74f 92f
5:24 9 14 mph 1007.1mb 73f 92f
5:18 8 16 mph 1007.2mb 73f 92f
5:12 10 16 mph 1007.3mb 73f 92f
5:06 10 15 mph 1007.4mb 73f 92f
5:00 9 17 mph 1007.3mb 73f 92f
4:54 13 17 mph 1007.3mb 73f 91f
4:48 8 18 mph 1007.3mb 73f 91f
4:42 9 18 mph 1007.3mb 73f 89f
4:36 13 20 mph 1007.4mb 73f 91f
4:30 8 14 mph 1007.4mb 73f 89f
4:24 11 17 mph 1007.5mb 73f 91f
4:18 11 20 mph 1007.5mb 73f 91f
4:12 14 20 mph 1007.5mb 73f 91f
4:06 15 23 mph 1007.5mb 73f 91f
4:00 14 18 mph 1007.5mb 73f 91f
3:54 10 16 mph 1007.5mb 73f 91f
3:48 14 21 mph 1007.5mb 73f 91f
3:42 14 20 mph 1007.5mb 73f 91f
3:36 14 18 mph 1007.5mb 73f 91f
3:30 10 18 mph 1007.5mb 73f 91f
3:24 11 23 mph 1007.6mb 73f 91f
3:18 8 14 mph 1007.7mb 73f 91f
3:12 13 20 mph 1007.8mb 73f 89f
3:06 11 17 mph 1007.8mb 73f 90f
3:00 11 21 mph 1007.9mb 73f 90f
2:54 10 18 mph 1007.9mb 73f 90f
2:48 13 22 mph 1007.8mb 73f 89f
2:42 11 17 mph 1007.9mb 73f 89f
2:36 13 22 mph 1007.9mb 73f 90f
2:30 11 17 mph 1007.9mb 73f 90f
2:24 14 23 mph 1007.9mb 73f 89f
2:18 11 17 mph 1007.9mb 73f 91f
2:12 10 15 mph 1007.9mb 73f 90f
2:06 13 21 mph 1007.9mb 72f 90f
2:00 11 18 mph 1007.9mb 72f 89f
1:54 14 17 mph 1008mb 72f 89f
1:48 7 14 mph 1008.1mb 71f 90f
1:42 10 16 mph 1008.2mb 72f 90f
1:36 10 20 mph 1008.2mb 72f 89f
1:30 9 15 mph 1008.2mb 72f 89f
1:24 14 18 mph 1008.2mb 72f 89f
1:18 7 16 mph 1008.2mb 72f 89f
1:12 7 17 mph 1008.2mb 72f 89f
1:06 13 18 mph 1008.2mb 72f 89f
1:00 8 14 mph 1008.2mb 72f 89f
12:54 9 14 mph 1008.2mb 72f 88f
12:48 9 14 mph 1008.3mb 72f 89f
12:42 8 14 mph 1008.3mb 72f 88f
12:36 8 14 mph 1008.4mb 72f 88f
12:30 8 14 mph 1008.4mb 72f 88f
12:24 8 14 mph 1008.4mb 73f 87f
12:18 6 11 mph 1008.4mb 73f 86f
12:12 7 15 mph 1008.4mb 73f 87f
12:06 7 13 mph 1008.5mb 73f 87f
12:00 10 15 mph 1008.5mb 73f 87f
11:54 9 15 mph 1008.5mb 73f 87f
11:48 9 14 mph 1008.5mb 73f 87f
11:42 7 13 mph 1008.5mb 73f 86f
11:36 8 11 mph 1008.5mb 73f 86f
11:30 8 13 mph 1008.5mb 73f 85f
11:24 8 14 mph 1008.6mb 73f 85f
11:18 7 14 mph 1008.6mb 73f 86f
11:12 6 14 mph 1008.6mb 73f 85f
11:06 8 15 mph 1008.6mb 73f 85f
11:00 11 16 mph 1008.6mb 73f 85f
10:54 7 14 mph 1008.5mb 73f 84f
10:48 10 15 mph 1008.5mb 73f 84f
10:42 9 14 mph 1008.4mb 73f 84f
10:36 9 14 mph 1008.4mb 73f 84f
10:30 8 14 mph 1008.5mb 73f 83f
10:24 9 17 mph 1008.5mb 73f 83f
10:18 10 14 mph 1008.5mb 73f 83f
10:12 9 14 mph 1008.4mb 73f 83f
10:06 9 13 mph 1008.3mb 74f 83f
10:00 7 11 mph 1008.3mb 74f 82f
9:54 7 11 mph 1008.2mb 74f 82f
9:48 8 15 mph 1008.4mb 74f 82f
9:42 8 14 mph 1008.3mb 74f 82f
9:36 9 16 mph 1008.4mb 74f 82f
9:30 10 17 mph 1008.4mb 74f 82f
9:24 10 14 mph 1008.3mb 74f 82f
9:18 8 13 mph 1008.3mb 74f 82f
9:12 11 17 mph 1008.3mb 74f 82f
9:06 10 16 mph 1008.4mb 74f 82f
9:00 11 16 mph 1008.4mb 74f 81f
8:54 9 16 mph 1008.3mb 74f 81f
8:48 10 20 mph 1008.2mb 74f 81f
8:42 10 18 mph 1008.3mb 74f 81f
8:36 13 18 mph 1008.3mb 74f 80f
8:30 7 17 mph 1008.4mb - 81f
8:24 10 15 mph 1008.3mb - 80f
8:18 9 18 mph 1008.3mb 74f 80f
8:12 9 16 mph 1008.3mb 74f 80f
8:06 9 17 mph 1008.3mb 74f 80f
8:00 9 14 mph 1008.3mb 73f 80f
7:54 7 10 mph 1008.4mb 73f 79f
7:48 7 13 mph 1008.5mb 73f 79f
7:42 6 13 mph 1008.5mb 73f 79f
7:36 7 9 mph 1008.5mb 73f 79f
7:30 7 10 mph 1008.5mb 73f 78f
7:24 3 6 mph 1008.4mb 73f 76f
7:18 5 6 mph 1008.4mb 73f 76f
7:12 5
mph
1008.4mb 73f 76f
7:06 3 5 mph 1008.4mb 73f 76f
7:00 3 5 mph 1008.3mb 73f 76f
6:54 2 6 mph 1008.4mb 73f 76f
6:48 3 5 mph 1008.4mb 73f 76f
6:42 1 3 mph 1008.4mb 73f 76f
6:36 2 3 mph 1008.4mb 73f 75f
6:30  -  5 mph 1008.4mb 73f 74f
6:24 5 6 mph 1008.3mb 73f 74f
6:18 6 8 mph 1008.2mb 73f 73f
6:12 7 8 mph 1008.2mb 73f 73f
6:06 7 8 mph 1008.2mb 73f 73f
6:00 7
mph
1008.1mb 73f 73f
5:54 6 7 mph 1008.1mb 73f 73f
5:48 6 7 mph 1008mb 73f 73f
5:42 6 7 mph 1008.1mb 73f 73f
5:36 6 7 mph 1008mb 73f 72f
5:30 6 7 mph 1008mb 73f 72f
5:24 6 7 mph 1008.1mb 73f 72f
5:18 5 6 mph 1008mb 73f 72f
5:12 6 7 mph 1007.9mb 73f 72f
5:06 6 7 mph 1008mb 73f 72f
5:00 6 7 mph 1007.9mb 73f 71f
4:54 7 9 mph 1007.9mb 73f 71f
4:48 8 9 mph 1007.9mb 73f 71f
4:42 9 10 mph 1007.9mb 73f 71f
4:36 9 10 mph 1007.9mb 73f 71f
4:30 10 11 mph 1007.9mb 73f 72f
4:24 10 11 mph 1007.8mb 73f 72f
4:18 9 10 mph 1007.8mb 73f 72f
4:12 8 9 mph 1007.9mb 73f 72f
4:06 8 9 mph 1007.9mb 73f 72f
4:00 7 8 mph 1008mb 73f 72f
3:54 6 7 mph 1008mb 73f 72f
3:48 6 9 mph 1008mb 73f 72f
3:42 8 9 mph 1008mb 73f 72f
3:36 8 9 mph 1008mb 73f 72f
3:30 9 10 mph 1008mb 72f 71f
3:24 9 10 mph 1008.1mb 72f 71f
3:18 10 13 mph 1008.1mb 72f 72f
3:12 13 14 mph 1008.2mb 72f 72f
3:06 11 13 mph 1008.2mb 72f 72f
3:00 9
mph
1008.2mb 73f 72f
2:54 6 10 mph 1008.3mb 73f 72f
2:48 9 10 mph 1008.4mb 73f 72f
2:42 10 14 mph 1008.5mb 72f 72f
2:36 11 14 mph 1008.4mb 72f 73f
2:30 10 11 mph 1008.6mb 72f 73f
2:24 7 9 mph 1008.6mb 73f 73f
2:18 8 10 mph 1008.7mb 73f 72f
2:12 9 11 mph 1008.6mb 73f 72f
2:06 10 11 mph 1008.7mb 73f 73f
2:00 9 10 mph 1008.7mb 73f 73f
1:54 9 11 mph 1008.8mb 73f 73f
1:48 9 10 mph 1008.8mb 73f 73f
1:42 9 11 mph 1008.9mb 73f 73f
1:36 9 11 mph 1009mb 73f 73f
1:30 10 11 mph 1009.2mb 73f 73f
1:24 9 10 mph 1009.2mb 73f 73f
1:18 9 10 mph 1009.6mb 73f 74f
1:12 9 11 mph 1009.5mb 73f 73f
1:06 6 8 mph 1009.6mb 73f 73f
1:00 5 6 mph 1009.3mb 73f 73f
12:54 5 6 mph 1008.7mb 73f 72f
12:48 5
mph
1008.7mb 73f 72f
12:42 3 5 mph 1009.3mb 73f 72f
12:36 6 8 mph 1009.2mb 73f 72f
12:30 8 9 mph 1009mb 73f 72f
12:24 7 8 mph 1009.1mb 74f 72f
12:18 3 6 mph 1009.1mb 74f 73f
12:12 6 7 mph 1009.1mb 74f 73f
12:06 5 6 mph 1009.3mb 74f 73f
12:00 2 9 mph - 74f 72f
ven. 07/22 11:54 8 11 mph - 74f 71f
11:48 8 11 mph 1010mb 74f 72f
11:42 6 10 mph 1010.1mb 74f 73f
11:36 11 21 mph 1010.3mb 74f 71f
11:30 9 14 mph 1009.8mb 74f 71f
11:24 10 13 mph 1009.2mb 74f 71f
11:18 9 11 mph 1009.1mb 74f 70f
11:12 5 8 mph 1009.3mb 74f 71f
11:06 9 13 mph 1009.3mb 74f 70f
11:00  -  mph - 74f 69f
10:54  -  mph - 74f 68f
10:48 22 33 mph - - -
10:42 17 24 mph - - -
10:36 13 16 mph - - -
10:30 8 11 mph - 75f -
10:24 10 11 mph - 75f -
10:18 11 13 mph - 75f 76f
10:12 11 13 mph - 75f 75f
10:06 13
mph
- 75f 76f
10:00 10 11 mph - 75f 77f
9:54 9 11 mph - 75f 78f
9:48 7 10 mph - - -
9:42 5 7 mph - - -
9:36 5 10 mph - - -
9:30 9 11 mph - 75f -
9:24 8 18 mph - 75f -
9:18 17 22 mph 1009.1mb 75f -
9:12 17 23 mph 1009mb 75f -
9:06 20 23 mph 1008.8mb 75f -
9:00  -  mph - 75f 77f
8:54  -  mph - 75f 77f
8:48 18 23 mph - - -
8:42 21 24 mph - - -
8:36 21 24 mph - - -
8:30 18 23 mph - - 78f
8:24 18 22 mph - - 78f
8:18  -  mph - 75f -
8:12  -  mph - 75f -
8:06  -  mph - 75f -
8:00  -  mph - - 78f
7:54  -  mph - - 78f
7:48 20 23 mph - 75f -
7:42 20 23 mph - 75f -
7:36 18 23 mph - 75f -
7:30 17 33 mph - 75f -
7:24 23 32 mph - 75f -
7:18 23 28 mph - 75f -
7:12 25 30 mph - 75f -
7:06 22 31 mph - 75f -
7:00 24 31 mph - 75f -
6:54 26 32 mph - 75f -
6:48 24 33 mph - 75f -
6:42 22 32 mph - 75f -
6:36 24 29 mph - 75f -
6:30 21 25 mph - 75f 82f
6:24 22 25 mph - 75f 82f
6:18  -  mph - 75f 82f
6:12  -  mph - 75f 82f
6:06  -  mph - 75f 82f
6:00  -  mph - 75f -
5:54  -  mph - 75f -
5:48 22 26 mph - 75f 81f
5:42 22 26 mph - 75f 81f
5:36 21 25 mph - 75f 81f
5:30 18 26 mph 1008.9mb 75f 81f
5:24 23 25 mph 1008.9mb 75f 81f
5:18 20 24 mph 1009mb 75f 82f
5:12 21 24 mph 1009.1mb 75f 82f
5:06 21 25 mph 1009.1mb 75f 82f
5:00 21 24 mph 1009.1mb 75f 82f
4:54 18 25 mph 1009.2mb 75f 82f
4:48 23 26 mph 1009mb 75f 82f
4:42 20 25 mph 1009mb 76f 82f
4:36 21 24 mph 1009.2mb 75f 82f
4:30 20 25 mph 1009.1mb 75f 81f
4:24 21 24 mph 1009.2mb 75f 81f
4:18 21 25 mph 1009.2mb 75f 81f
4:12 23 29 mph 1009.1mb 75f 82f
4:06 20 23 mph 1009.2mb 75f 82f
4:00 21 24 mph 1009.3mb 75f 81f
3:54 21 28 mph 1009.2mb 75f 81f
3:48 21 23 mph 1009.2mb 75f 80f
3:42 20 22 mph 1009.3mb 75f 81f
3:36 22 25 mph 1009.4mb 75f 82f
3:30 22 25 mph 1009.4mb 74f 81f
3:24 22 25 mph 1009.5mb 74f 81f
3:18 22 25 mph 1009.6mb 75f 81f
3:12 21 25 mph 1009.8mb 74f 81f
3:06 22 28 mph 1009.8mb 74f 81f
3:00 24 26 mph 1009.8mb 74f 81f
2:54 23 26 mph 1009.8mb 74f 82f
2:48 21 24 mph 1009.8mb 74f 81f
2:42 22 26 mph 1009.9mb 74f 81f
2:36 22 28 mph 1009.9mb 73f 81f
2:30 23 26 mph 1009.9mb 73f 81f
2:24 23 28 mph 1009.9mb 73f 81f
2:18 22 25 mph 1010mb 73f 81f
2:12 23 28 mph 1010mb 73f 81f
2:06 17 22 mph 1010.1mb 73f 81f
2:00 17 26 mph 1010.3mb 73f 81f
1:54 17 23 mph 1010.3mb 73f 81f
1:48 17 21 mph 1010.4mb 73f 81f
1:42 18 23 mph 1010.5mb 72f 81f
1:36 17 25 mph 1010.5mb 72f 81f
1:30 23 28 mph 1010.4mb 72f 82f
1:24 22 26 mph 1010.4mb 72f 82f
1:18 17 21 mph 1010.5mb 72f 82f
1:12 17 24 mph 1010.7mb 72f 81f
1:06 18 23 mph 1010.7mb 72f 82f
1:00 17 20 mph 1010.8mb 72f 81f
12:54 17 22 mph 1010.9mb 72f 81f
12:48 18 23 mph 1010.9mb 72f 81f
12:42 21 23 mph 1011.1mb 72f 81f
12:36 18 22 mph 1011.2mb 72f 81f
12:30 21 24 mph 1011.2mb 72f 81f
12:24 18 24 mph 1011.3mb 72f 81f
12:18 17 22 mph 1011.4mb 72f 81f
12:12 17 24 mph 1011.5mb 73f 81f
12:06 16 25 mph 1011.5mb 73f 81f
12:00 17 22 mph 1011.5mb 73f 81f
11:54 17 22 mph 1011.6mb 73f 80f
11:48 18 22 mph 1011.7mb 73f 80f
11:42 21 25 mph 1011.8mb 73f 80f
11:36 20 23 mph 1011.9mb 73f 80f
11:30 18 24 mph 1012mb 73f 80f
11:24 21 24 mph 1012mb 73f 80f
11:18 18 23 mph 1012.2mb 73f 80f
11:12 20 24 mph 1012.2mb 74f 80f
11:00 20 25 mph 1012.3mb 74f 80f
10:54 23 26 mph 1012.3mb 74f 79f
10:48 20 22 mph 1012.4mb 74f 79f
10:42 17 22 mph 1012.4mb 74f 79f
10:36 17 21 mph 1012.5mb 74f 79f
10:30 16 21 mph 1012.6mb 74f 78f
10:24 18 22 mph 1012.6mb 74f 78f
10:18 16 22 mph 1012.6mb 74f 78f
10:12 17 21 mph 1012.6mb 74f 78f
10:06 18 21 mph 1012.6mb 74f 78f
10:00 18 22 mph 1012.6mb 74f 78f
9:54 17 23 mph 1012.7mb 74f 77f
9:48 21 23 mph 1012.6mb 74f 77f
9:42 18 22 mph 1012.7mb 74f 77f
9:36 16 22 mph 1012.6mb 74f 77f
9:30 18 24 mph 1012.7mb 74f 77f
9:24 20 24 mph 1012.8mb 74f 77f
9:18 20 24 mph 1012.9mb 74f 77f
9:12 21 23 mph 1012.8mb 74f 77f
9:06 20 24 mph 1012.9mb 74f 77f
9:00 17 24 mph 1013.1mb 74f 76f
8:54 17 20 mph 1013.2mb 74f 76f
8:48 18 22 mph 1013.3mb 74f 76f
8:42 17 22 mph 1013.4mb 74f 76f
8:36 17 21 mph 1013.6mb 74f 76f
8:30 15 18 mph 1013.7mb 74f 76f
8:24 16 21 mph 1013.7mb 74f 76f
8:18 17 21 mph 1013.7mb 74f 76f
8:12 20 22 mph 1013.8mb 74f 76f
8:06 20 24 mph 1013.8mb 74f 76f
8:00 17 24 mph 1013.8mb 74f 76f
7:54 17 22 mph 1013.9mb 74f 75f
7:48 17 22 mph 1014mb 74f 75f
7:42 18 23 mph 1014mb 74f 75f
7:36 20 24 mph 1014.1mb 74f 75f
7:30 20 25 mph 1014.1mb 74f 75f
7:24 18 23 mph 1014.1mb 74f 74f
7:18 18 21 mph 1014.2mb 74f 74f
7:12 17 22 mph 1014.3mb 74f 74f
7:06 18 23 mph 1014.3mb 74f 74f
7:00 17 22 mph 1014.3mb 74f 74f
6:54 18 24 mph 1014.4mb 74f 74f
6:48 18 23 mph 1014.4mb 74f 73f
6:42 17 21 mph 1014.4mb 74f 73f
6:36 16 21 mph 1014.6mb 73f 73f
6:30 17 22 mph 1014.6mb 73f 73f
6:24 16 21 mph 1014.6mb 73f 73f
6:18 17 20 mph 1014.5mb 73f 73f
6:12 17 21 mph 1014.5mb 73f 73f
6:06 17 20 mph 1014.5mb 73f 73f
6:00 17 20 mph 1014.6mb 73f 73f
5:54 17 21 mph 1014.6mb 73f 73f
5:48 16 18 mph 1014.6mb 73f 73f
5:42 15 18 mph 1014.7mb 74f 73f
5:36 15 18 mph 1014.7mb 74f 72f
5:30 15 18 mph 1014.8mb 74f 73f
5:24 14 17 mph 1014.8mb 73f 73f
5:18 15 17 mph 1014.6mb 73f 72f
5:12 14 18 mph 1014.6mb 73f 72f
5:06 14 18 mph 1014.8mb 74f 72f
5:00 13 15 mph 1014.8mb 74f 72f
4:54 13 16 mph 1014.8mb 74f 72f
4:48 13 14 mph 1014.9mb 74f 72f
4:42 11 14 mph 1014.9mb 74f 72f
4:36 11 14 mph 1015mb 74f 72f
4:30 11 14 mph 1015mb 74f 72f
4:24 14 15 mph 1014.9mb 73f 72f
4:18 13 16 mph 1014.8mb 73f 72f
4:12 13 15 mph 1014.8mb 73f 72f
4:06 13 16 mph 1014.9mb 73f 72f
4:00 14 16 mph 1014.9mb 73f 72f
3:54 14 15 mph 1015mb 73f 72f
3:48 13 15 mph 1015mb 73f 72f
3:42 13 15 mph 1015.2mb 73f 72f
3:36 14 16 mph 1015.3mb 74f 72f
3:30 14 16 mph 1015.2mb 73f 72f
3:24 15 17 mph 1015.3mb 73f 72f
3:18 14 17 mph 1015.4mb 73f 72f
3:12 14 16 mph 1015.4mb 73f 72f
3:06 14 17 mph 1015.4mb 73f 73f
3:00 15 17 mph 1015.4mb 73f 73f
2:54 14 17 mph 1015.4mb 73f 73f
2:48 15 17 mph 1015.4mb 73f -
2:42 15 17 mph 1015.4mb 73f -
2:36 14 17 mph 1015.4mb 73f -
2:30 16 18 mph 1015.4mb 73f 73f
2:24 15 17 mph 1015.4mb 73f 73f
2:18 15 18 mph 1015.5mb 73f 73f
2:12 16 20 mph 1015.5mb 73f 73f
2:06 15 18 mph 1015.5mb 73f 73f
2:00 15 17 mph 1015.6mb 73f 73f
1:54 15 18 mph 1015.7mb 73f 73f
1:48 15 17 mph 1015.7mb - -
1:42 16 20 mph 1015.8mb - -
1:36 16 18 mph 1015.7mb - -
1:30 14 18 mph 1015.8mb 73f 73f
1:24 16 18 mph 1015.9mb 72f 73f
1:18 15 18 mph 1015.9mb 72f 73f
1:12 15 18 mph 1015.8mb 72f 73f
1:06 15 20 mph 1015.9mb 72f 73f
1:00 15 17 mph 1016mb 72f 73f
12:54 17 20 mph 1016.1mb 72f 73f
12:48 16 20 mph 1016.1mb 73f 73f
12:42 17 20 mph 1016mb 73f 73f
12:36 16 20 mph 1016.2mb 73f 73f
12:30 15 18 mph 1016.3mb 73f 73f
12:24 16 18 mph 1016.3mb 73f 73f
12:18 16 20 mph 1016.4mb 73f 73f
12:12 16 21 mph 1016.6mb 73f 73f
12:06 17 20 mph 1016.6mb 73f 73f
12:00 16 18 mph 1016.7mb 73f 73f
jeu. 07/21 11:54 16 20 mph 1016.7mb 73f 73f
11:48 17 20 mph 1016.7mb 73f 73f
11:42 17 20 mph 1016.7mb 73f 73f
11:36 15 18 mph 1016.7mb 73f 73f
11:30 16 18 mph 1016.9mb 73f 73f
11:24 17 21 mph 1016.9mb 73f 73f
11:18 17 20 mph - 73f 73f
11:12 18 21 mph - 73f 74f
11:06 17 21 mph - 73f 73f
11:00  -  mph - 73f 73f
10:54  -  mph - 73f 73f
10:48 16 18 mph - 73f -
10:42 15 18 mph - 73f -
10:36 14 17 mph - 73f -
10:30 15 18 mph - 73f -
10:24 16 20 mph - 73f -
10:18 16 21 mph - 73f 74f
10:12 15 18 mph - 73f 74f
10:06 15 18 mph - 73f 74f
10:00  -  mph - 73f 74f
9:54  -  mph - 74f 74f
9:48 16 18 mph - - -
9:42 16 20 mph - - -
9:36 15 20 mph - - -
9:30 16 20 mph - 75f -
9:24 14 18 mph - 75f -
9:18 16 20 mph - 76f -
9:12 16 20 mph - 76f -
9:06 17 21 mph - 76f -
9:00  -  mph - 76f 75f
8:54  -  mph - 76f 75f
8:48  -  mph - 76f -
8:42  -  mph - 76f -
8:36  -  mph - 76f -
8:30  -  mph - 76f -
8:24  -  mph - 76f -
8:18 16 20 mph 1017.1mb 76f -
8:12 17 20 mph 1017.1mb 76f -
8:06 17 20 mph 1017.1mb 76f -
8:00  -  mph - 76f 76f
7:54  -  mph - 76f 76f
7:48  -  mph - 76f -
7:42  -  mph - 76f -
7:36  -  mph - 76f -
7:30  -  mph - 76f -
7:24  -  mph - 76f -
7:18 18 23 mph - 76f 77f
7:12 16 20 mph - 76f 77f
7:06 17 22 mph - 76f 77f
7:00  -  mph - 76f -
6:54  -  mph - 76f -
6:48  -  mph - 76f -
6:42  -  mph - 76f -
6:36  -  mph - 76f -
6:30  -  mph - 76f -
6:24  -  mph - 76f -
6:18  -  mph 1017.2mb 76f 78f
6:12  -  mph 1017.3mb 76f 78f
6:06  -  mph 1017.5mb 76f 78f
6:00  -  mph - 76f 78f
5:54  -  mph - 76f 78f
5:48 18 23 mph 1017.7mb 76f 78f
5:42 22 25 mph 1017.6mb 76f 78f
5:36 22 26 mph 1017.6mb 76f 78f
5:30 23 28 mph 1017.6mb 76f 78f
5:24 25 28 mph 1017.6mb 76f 79f
5:18 22 26 mph 1017.6mb 75f 79f
5:12 22 24 mph 1017.7mb 75f 79f
5:06 22 28 mph 1017.7mb 75f 79f
5:00 20 24 mph 1017.7mb 76f 79f
4:54 22 25 mph 1017.8mb 76f 80f
4:48 21 26 mph 1017.8mb 76f 80f
4:42 22 26 mph 1017.8mb 76f 80f
4:36 24 26 mph 1017.7mb 76f 80f
4:30 22 25 mph 1017.8mb 76f 80f
4:24 18 22 mph 1017.8mb 76f 80f
4:18 20 24 mph 1017.9mb 76f 80f
4:12 17 22 mph 1017.9mb 76f 80f
4:06 16 23 mph 1017.9mb 76f 80f
4:00 21 24 mph 1017.9mb 76f 80f
3:54 20 24 mph 1017.8mb 76f 80f
3:48 22 25 mph 1017.9mb 76f 80f
3:42 22 25 mph 1017.8mb 76f 80f
3:36 18 22 mph 1017.8mb 76f 81f
3:30 20 24 mph 1017.9mb 76f 80f
3:24 21 26 mph 1018mb 76f 80f
3:18 20 22 mph 1018mb 76f 80f
3:12 18 24 mph 1018.1mb 76f 81f
3:06 21 26 mph 1018.1mb 76f 81f
3:00 21 23 mph 1018mb 76f 81f
2:54 21 24 mph 1018mb 76f 81f
2:48 18 22 mph 1018mb 76f 81f
2:42 18 22 mph 1018mb 76f 80f
2:36 18 22 mph 1018.1mb 76f 80f
2:30 20 22 mph 1018.2mb 76f 80f
2:24 17 21 mph 1018.3mb 76f 80f
2:18 15 21 mph 1018.4mb 76f 80f
2:12 17 20 mph 1018.4mb 76f 80f
2:06 15 18 mph 1018.4mb 76f 80f
2:00 16 17 mph 1018.5mb 76f 80f
1:54 11 18 mph 1018.8mb 76f 79f
1:48 17 20 mph 1018.7mb 76f 80f
1:42 13 17 mph 1018.8mb 75f 78f
1:36 16 24 mph 1019mb 75f 77f
1:30 16 20 mph 1019mb 75f 77f
1:24 16 20 mph 1019.1mb 75f 77f
1:18 14 16 mph 1019.3mb 74f 78f
1:12 10 14 mph 1019.3mb 74f 79f
1:06 10 20 mph 1019.3mb 74f 79f
1:00 10 14 mph 1019.3mb 73f 78f
12:54 9 14 mph 1019.2mb 73f 80f
12:48 6 7 mph 1019.2mb 73f 82f
12:42 7 9 mph 1019.4mb 73f 82f
12:36 6 9 mph 1019.6mb 72f 83f
12:30 7 10 mph 1019.8mb 72f 82f
12:24 8 9 mph 1019.9mb 72f 82f
12:18 8 14 mph 1020mb 72f 82f
12:12 9 15 mph 1020mb 72f 82f
12:06 6 11 mph 1020mb 72f 82f
12:00 9 13 mph 1020.1mb 72f 81f
11:54 9 11 mph 1020.3mb 72f 81f
11:48 9 15 mph 1020.5mb 72f 80f
11:42 7 10 mph 1020.7mb 72f 81f
11:36 6 14 mph 1020.7mb 73f 83f
11:30 13 15 mph 1020.6mb 73f 80f
11:24 9 13 mph 1020.6mb 73f 80f
11:18 6 9 mph 1020.6mb 73f 80f
11:12 8 11 mph 1020.6mb 73f 80f
11:06 7 11 mph 1020.6mb 73f 81f
11:00 9 15 mph 1020.5mb 73f 80f
10:54 10 14 mph 1020.6mb 74f 80f
10:48 10 15 mph 1020.7mb 74f 79f
10:42 8 13 mph 1020.7mb 74f 79f
10:36 10 13 mph 1020.8mb 74f 78f
10:30 11 13 mph 1020.7mb 74f 78f
10:24 7 11 mph 1020.8mb 74f 79f
10:18 8 10 mph 1020.9mb 74f 78f
10:12 6 9 mph 1021mb 74f 78f
10:06 9 10 mph 1021mb 74f 78f
10:00 7 9 mph 1020.9mb 74f 78f
9:54 8 9 mph 1020.9mb 74f 78f
9:48 9 13 mph 1020.9mb 74f 78f
9:42 8 11 mph 1020.8mb 74f 77f
9:36 3 6 mph 1020.8mb 74f 76f
9:30 3 6 mph 1020.8mb 75f 74f
9:24 5 6 mph 1020.7mb 75f 73f
9:18 5
mph
1020.8mb 75f 73f
9:12 3 5 mph 1021mb 75f 73f
9:06 3 5 mph 1021.1mb 75f 73f
9:00 5 6 mph 1021.1mb 75f 72f
8:54 5 6 mph 1021.1mb 74f 72f
8:48 5 6 mph 1021.1mb 74f 72f
8:42 5
mph
1021.2mb 74f 72f
8:36 3 5 mph 1021.2mb 74f 72f
8:30 3 5 mph 1021.2mb 74f 71f
8:24 3 5 mph 1021.2mb 74f 71f
8:18 5
mph
1021.2mb 74f 70f
8:12 3 5 mph 1021.3mb 74f 71f
8:06 3
mph
1021.4mb 74f 71f
8:00 3
mph
1021.5mb 74f 71f
7:54 2 3 mph 1021.6mb 74f 71f
7:48 2 3 mph 1021.6mb 74f 71f
7:42 3
mph
1021.7mb 74f 70f
7:36 3
mph
1021.7mb 74f 71f
7:30 2
mph
1021.7mb 74f 71f
7:24 2
mph
1021.7mb 74f 71f
7:18 2
mph
1021.7mb 74f 71f
7:12 2
mph
1021.7mb 74f 70f
7:06 2 3 mph 1021.6mb 74f 70f
7:00 2 3 mph 1021.5mb 74f 69f
6:54 2 3 mph 1021.4mb 74f 69f
6:48 1 2 mph 1021.5mb 74f 69f
6:42 2
mph
1021.5mb 74f 69f
6:36  -  1 mph 1021.5mb 74f 71f
6:30  -  2 mph 1021.4mb 74f 68f
6:24 2
mph
1021.4mb 74f 67f
6:18 1 2 mph 1021.2mb 74f 67f
6:12 1 3 mph 1021.2mb 74f 67f
6:06 2 5 mph 1021.2mb 74f 67f
6:00 3 6 mph 1021.1mb 74f 66f
5:54 2 5 mph 1021.2mb 74f 66f
5:48 3 6 mph 1021.1mb 74f 66f
5:42 5 6 mph 1021mb 74f 66f
5:36 5 6 mph 1020.9mb 74f 66f
5:30 5 6 mph 1020.9mb 74f 66f
5:24 3 6 mph 1021mb 74f 66f
5:18 3 6 mph 1021mb 74f 65f
5:12 5 7 mph 1020.9mb 74f 66f
5:06 5 7 mph 1020.7mb 74f 66f
5:00 6 7 mph 1020.8mb 74f 66f
4:54 6 8 mph 1020.6mb 74f 66f
4:48 6 9 mph 1020.5mb 74f 66f
4:42 7 8 mph 1020.6mb 74f 66f
4:36 7 8 mph 1020.6mb 74f 65f
4:30 8 9 mph 1020.5mb 74f 65f
4:24 8 10 mph 1020.4mb 74f 65f
4:18 7 9 mph 1020.5mb 74f 65f
4:12 8 9 mph 1020.3mb 74f 65f
4:06 8
mph
1020.3mb 74f 65f
4:00 8 9 mph 1020.5mb 74f 65f
3:54 7 9 mph 1020.4mb 74f 65f
3:48 8
mph
1020.5mb 74f 66f
3:42 6 8 mph 1020.5mb 74f 65f
3:36 7 8 mph 1020.6mb 74f 65f
3:30 7 8 mph 1020.7mb 74f 66f
3:24 7
mph
1020.8mb 74f 66f
3:18 6
mph
1020.8mb 74f 66f
3:12 3 5 mph 1020.9mb 74f 67f
3:06 5 6 mph 1020.8mb 74f 67f
3:00 3 5 mph 1020.8mb 74f 67f
2:54 3 5 mph 1020.9mb 74f 67f
2:48 3
mph
1020.9mb 74f 67f
2:42 3
mph
1020.9mb 74f 67f
2:36 3 5 mph 1021mb 74f 67f
2:30 3 5 mph 1021mb 74f 67f
2:24 5 6 mph 1021mb 74f 67f
2:18 5 6 mph 1021mb 74f 67f
2:12 6
mph
1021mb 74f 67f
2:06 3
mph
1021mb 74f 68f
2:00  -  2 mph 1021mb 74f 68f
1:54 2 3 mph 1021.1mb 74f 68f
1:48 3
mph
1021.1mb - -
1:42 3
mph
1021.2mb - -
1:36 2 3 mph 1021.2mb - -
1:30 3
mph
1021.2mb 73f 69f
1:24 2 3 mph 1021.2mb 73f 69f
1:18 2 3 mph 1021.3mb 73f 69f
1:12 2 3 mph 1021.2mb 73f 69f
1:06 2 3 mph 1021.4mb 73f 69f
1:00 2 3 mph 1021.4mb 73f 69f
12:54 3 6 mph 1021.4mb 73f 68f
12:48 5 6 mph 1021.5mb 73f 68f
12:42 5 6 mph 1021.4mb 73f 68f
12:36 6 7 mph 1021.5mb 73f 68f
12:30 3 5 mph 1021.5mb 73f 69f
12:24 2 3 mph 1021.5mb 73f 69f
12:18 3 5 mph 1021.5mb 73f 69f
12:12 3 5 mph 1021.5mb 73f 69f
12:06 3 5 mph 1021.5mb 73f 69f
12:00 5 6 mph 1021.5mb 73f 69f
mer. 07/20 11:54 6
mph
1021.5mb 73f 70f
11:48 3 6 mph 1021.5mb 73f 70f
11:42 3 6 mph 1021.6mb 73f 69f
11:36 3 6 mph 1021.6mb 73f 69f
11:30 3 6 mph 1021.6mb 73f 70f
11:24 6 8 mph 1021.6mb 73f 69f
11:18  -  mph - 73f -
11:12  -  mph - 73f -
11:06  -  mph - 74f -
11:00  -  mph - 74f 70f
10:54  -  mph - 74f 70f
10:48  -  mph 1021.5mb 74f -
10:42  -  mph 1021.5mb 74f -
10:36  -  mph 1021.5mb 74f -
10:30 10 13 mph - 74f -
10:24 10 13 mph - 74f -
10:18 10 13 mph - 74f -
10:12 10 13 mph - 74f -
10:06 9 11 mph - 74f -
10:00  -  mph - 74f 71f
9:54  -  mph - 75f 71f
9:48 9 11 mph 1021.1mb 75f -
9:42 10 11 mph 1021.1mb 75f -
9:36 10 13 mph 1021mb 75f -
9:30  -  mph - 75f -
9:24  -  mph - 75f -
9:18 10 11 mph - 75f -
9:12 10 11 mph - 75f -
9:06 10 14 mph - 75f -
9:00  -  mph - 75f 72f
8:54  -  mph - 75f 72f
8:48  -  mph 1020.5mb 75f -
8:42  -  mph 1020.4mb 75f -
8:36  -  mph 1020.4mb 75f -
8:30 10 11 mph - 75f -
8:24 9 10 mph - 75f -